Time;durP1;ratioP1;P1;durP2;ratioP2;P2;SDS_P1;SDS_P2;PMS_P1;PMS_P2;Temp;Humidity;BMP_temperature;BMP_pressure;BME280_temperature;BME280_humidity;BME280_pressure;Samples;Min_cycle;Max_cycle;Signal;HPM_P1;HPM_P2
2021/11/30 00:00:42;;;;;;;21.30;8.90;;;;;;;0.40;90.43;97498.95;214578;1321;23851;-76
2021/11/30 00:06:06;;;;;;;20.50;7.50;;;;;;;0.38;90.58;97507.21;215003;1317;24227;-77
2021/11/30 00:11:11;;;;;;;16.30;6.90;;;;;;;0.36;90.38;97514.73;214812;1319;22702;-76
2021/11/30 00:16:14;;;;;;;15.10;7.00;;;;;;;0.31;90.53;97517.33;215000;1321;23796;-76
2021/11/30 00:21:16;;;;;;;12.60;6.00;;;;;;;0.29;90.41;97522.36;214706;1319;24421;-76
2021/11/30 00:26:19;;;;;;;14.40;6.70;;;;;;;0.30;90.68;97524.01;215043;1320;24333;-76
2021/11/30 00:31:21;;;;;;;12.50;5.60;;;;;;;0.31;90.72;97532.40;214825;1317;25983;-76
2021/11/30 00:36:24;;;;;;;10.70;5.70;;;;;;;0.28;90.71;97536.38;214726;1314;24372;-76
2021/11/30 00:41:42;;;;;;;10.40;5.10;;;;;;;0.29;90.63;97546.35;214950;1322;22689;-77
2021/11/30 00:46:51;;;;;;;12.40;4.70;;;;;;;0.29;90.77;97552.13;214999;1322;24249;-77
2021/11/30 00:51:56;;;;;;;14.20;6.20;;;;;;;0.31;90.68;97564.60;215197;1318;22574;-76
2021/11/30 00:56:59;;;;;;;12.90;5.60;;;;;;;0.35;90.96;97564.05;214929;1322;23806;-77
2021/11/30 01:02:01;;;;;;;17.50;7.00;;;;;;;0.42;90.95;97567.84;214730;1319;22749;-77
2021/11/30 01:07:04;;;;;;;20.40;8.20;;;;;;;0.51;91.04;97566.54;214933;1320;25384;-77
2021/11/30 01:12:06;;;;;;;20.20;8.00;;;;;;;0.60;90.94;97568.65;214804;1317;24177;-76
2021/11/30 01:17:08;;;;;;;16.60;7.10;;;;;;;0.66;90.88;97573.55;215085;1321;25306;-77
2021/11/30 01:22:10;;;;;;;21.40;7.10;;;;;;;0.69;90.97;97577.52;215011;1321;24190;-77
2021/11/30 01:27:13;;;;;;;21.30;8.00;;;;;;;0.73;90.75;97581.73;215101;1316;23883;-77
2021/11/30 01:32:15;;;;;;;24.10;7.30;;;;;;;0.76;90.69;97586.90;214864;1322;22653;-77
2021/11/30 01:37:17;;;;;;;15.70;6.10;;;;;;;0.74;90.44;97590.38;215017;1322;22522;-77
2021/11/30 01:42:20;;;;;;;19.30;6.60;;;;;;;0.74;90.58;97588.52;214877;1321;25452;-77
2021/11/30 01:52:27;;;;;;;20.70;7.80;;;;;;;0.75;90.56;97607.09;214792;1320;25319;-77
2021/11/30 01:57:37;;;;;;;20.40;8.30;;;;;;;0.73;90.38;97609.70;215023;1322;24301;-77
2021/11/30 02:02:40;;;;;;;28.90;9.10;;;;;;;0.73;90.51;97615.19;215024;1321;25274;-77
2021/11/30 02:07:52;;;;;;;21.20;7.80;;;;;;;0.73;90.52;97616.55;214792;1321;25203;-77
2021/11/30 02:13:07;;;;;;;17.80;5.90;;;;;;;0.72;90.48;97621.09;214995;1320;25034;-77
2021/11/30 02:18:13;;;;;;;18.10;6.90;;;;;;;0.72;90.42;97620.77;214592;1319;22871;-78
2021/11/30 02:24:01;;;;;;;12.90;6.50;;;;;;;0.69;90.37;97628.87;214730;1313;22618;-77
2021/11/30 02:28:47;;;;;;;17.00;6.90;;;;;;;0.70;90.57;97628.67;215059;1318;25359;-77
2021/11/30 02:34:00;;;;;;;16.40;5.90;;;;;;;0.72;90.63;97624.98;214878;1317;22645;-77
2021/11/30 02:39:07;;;;;;;13.90;6.00;;;;;;;0.73;90.53;97618.84;214923;1321;22682;-77
2021/11/30 02:44:11;;;;;;;19.90;6.70;;;;;;;0.70;90.01;97620.08;214774;1321;22714;-77
2021/11/30 02:49:25;;;;;;;19.20;6.80;;;;;;;0.69;90.13;97624.34;214787;1319;24269;-77
2021/11/30 02:54:28;;;;;;;21.00;7.70;;;;;;;0.71;90.17;97624.66;214869;1322;24213;-77
2021/11/30 02:59:32;;;;;;;20.00;7.90;;;;;;;0.73;90.28;97630.33;214586;1317;22648;-77
2021/11/30 03:04:34;;;;;;;21.00;8.00;;;;;;;0.77;90.22;97633.79;214784;1322;23312;-77
2021/11/30 03:09:37;;;;;;;27.10;9.60;;;;;;;0.79;90.24;97633.27;214766;1321;24206;-77
2021/11/30 03:14:40;;;;;;;27.00;9.90;;;;;;;0.81;90.29;97627.65;215220;1322;22519;-77
2021/11/30 03:19:42;;;;;;;36.50;12.00;;;;;;;0.85;90.30;97629.15;215070;1319;22616;-77
2021/11/30 03:24:44;;;;;;;23.90;9.90;;;;;;;0.85;90.15;97629.30;215042;1322;25401;-78
2021/11/30 03:29:46;;;;;;;31.80;10.00;;;;;;;0.80;89.92;97632.55;214736;1316;23842;-77
2021/11/30 03:34:48;;;;;;;21.50;8.40;;;;;;;0.75;89.99;97637.67;214862;1321;22715;-77
2021/11/30 03:39:57;;;;;;;25.40;8.60;;;;;;;0.74;89.96;97641.57;215066;1320;22625;-77
2021/11/30 03:44:59;;;;;;;19.60;8.00;;;;;;;0.72;90.22;97639.02;215047;1321;22510;-77
2021/11/30 03:50:03;;;;;;;20.30;7.60;;;;;;;0.69;90.20;97644.42;215062;1320;22892;-77
2021/11/30 03:55:06;;;;;;;15.10;6.50;;;;;;;0.65;89.95;97649.72;214850;1317;24283;-77
2021/11/30 04:00:38;;;;;;;16.80;6.40;;;;;;;0.63;90.06;97657.02;214872;1322;23192;-77
2021/11/30 04:05:40;;;;;;;20.10;7.60;;;;;;;0.63;90.05;97658.25;214444;1316;25249;-77
2021/11/30 04:10:42;;;;;;;19.20;7.80;;;;;;;0.64;90.20;97659.05;215136;1321;23120;-76
2021/11/30 04:15:48;;;;;;;19.80;7.50;;;;;;;0.66;90.24;97654.95;215037;1321;26156;-77
2021/11/30 04:21:03;;;;;;;19.70;7.00;;;;;;;0.68;90.21;97651.69;214873;1322;22774;-76
2021/11/30 04:26:05;;;;;;;19.90;7.50;;;;;;;0.69;90.21;97650.07;214658;1316;24189;-76
2021/11/30 04:31:21;;;;;;;18.00;6.30;;;;;;;0.72;90.13;97642.97;214845;1321;22521;-76
2021/11/30 04:36:23;;;;;;;15.90;6.60;;;;;;;0.68;90.18;97647.05;214650;1320;25399;-76
2021/11/30 04:41:25;;;;;;;17.60;7.20;;;;;;;0.62;90.00;97641.94;214656;1322;23725;-78
2021/11/30 04:46:38;;;;;;;20.70;6.90;;;;;;;0.54;90.07;97641.41;215132;1316;23882;-76
2021/11/30 04:51:49;;;;;;;20.50;8.20;;;;;;;0.52;90.20;97643.55;215023;1316;22795;-77
2021/11/30 04:57:05;;;;;;;10.00;4.80;;;;;;;0.51;89.94;97635.79;214921;1313;25372;-77
2021/11/30 05:02:07;;;;;;;16.00;5.90;;;;;;;0.50;89.77;97634.27;214766;1320;25969;-77
2021/11/30 05:07:12;;;;;;;14.60;5.30;;;;;;;0.53;90.13;97636.34;214778;1320;22528;-77
2021/11/30 05:12:14;;;;;;;10.40;4.30;;;;;;;0.57;89.61;97636.25;214553;1320;384807;-76
2021/11/30 05:17:16;;;;;;;13.10;4.70;;;;;;;0.51;89.42;97639.80;214870;1322;23666;-76
2021/11/30 05:22:18;;;;;;;17.50;5.70;;;;;;;0.52;89.66;97640.54;214765;1320;23846;-77
2021/11/30 05:27:20;;;;;;;12.00;4.10;;;;;;;0.55;89.57;97635.52;214831;1313;23860;-77
2021/11/30 05:32:22;;;;;;;12.80;5.30;;;;;;;0.57;89.78;97636.79;214921;1317;22589;-77
2021/11/30 05:37:24;;;;;;;15.30;5.50;;;;;;;0.56;89.42;97635.47;214946;1321;24161;-76
2021/11/30 05:42:27;;;;;;;16.30;6.10;;;;;;;0.53;89.40;97636.54;214642;1321;24251;-76
2021/11/30 05:47:29;;;;;;;17.40;6.50;;;;;;;0.53;89.47;97636.34;215025;1321;22660;-76
2021/11/30 05:52:31;;;;;;;16.50;6.80;;;;;;;0.52;89.42;97629.20;214965;1322;22767;-77
2021/11/30 05:57:33;;;;;;;14.10;5.80;;;;;;;0.37;89.10;97619.70;214973;1321;23005;-77
2021/11/30 06:02:55;;;;;;;13.00;5.80;;;;;;;0.28;89.41;97616.98;214999;1320;22596;-77
2021/11/30 06:07:58;;;;;;;14.90;5.00;;;;;;;0.28;89.80;97614.46;215123;1314;22980;-76
2021/11/30 06:13:00;;;;;;;17.60;6.30;;;;;;;0.25;89.81;97609.90;215212;1321;22615;-77
2021/11/30 06:18:03;;;;;;;14.90;5.20;;;;;;;0.29;90.13;97610.37;214884;1320;22563;-77
2021/11/30 06:23:04;;;;;;;12.40;5.00;;;;;;;0.36;89.89;97609.01;214891;1321;22819;-77
2021/11/30 06:28:06;;;;;;;13.60;5.90;;;;;;;0.39;89.89;97609.70;215095;1320;23423;-77
2021/11/30 06:33:08;;;;;;;18.40;6.20;;;;;;;0.47;90.34;97615.79;214946;1319;22694;-78
2021/11/30 06:38:10;;;;;;;11.30;5.60;;;;;;;0.57;90.16;97613.70;215030;1321;22732;-77
2021/11/30 06:43:13;;;;;;;16.10;6.10;;;;;;;0.51;89.83;97612.39;215573;1313;23989;-78
2021/11/30 06:48:16;;;;;;;16.10;6.00;;;;;;;0.51;90.11;97604.69;216049;1313;25963;-79
2021/11/30 06:53:19;;;;;;;13.40;5.90;;;;;;;0.56;89.80;97604.27;216559;1316;24189;-78
2021/11/30 06:58:21;;;;;;;16.40;7.70;;;;;;;0.59;90.10;97599.16;216043;1316;22608;-78
2021/11/30 07:03:23;;;;;;;15.60;6.30;;;;;;;0.60;90.00;97600.07;215895;1313;22528;-78
2021/11/30 07:13:56;;;;;;;17.70;8.20;;;;;;;0.61;89.64;97586.52;215322;1316;22585;-77
2021/11/30 07:19:00;;;;;;;16.20;7.30;;;;;;;0.59;89.70;97579.67;215418;1315;23937;-77
2021/11/30 07:24:08;;;;;;;20.70;9.30;;;;;;;0.58;89.52;97577.97;215687;1313;22624;-77
2021/11/30 07:29:10;;;;;;;17.60;8.70;;;;;;;0.54;89.43;97568.83;215659;1316;22669;-78
2021/11/30 07:34:12;;;;;;;15.50;8.70;;;;;;;0.54;89.34;97559.71;215841;1313;22853;-78
2021/11/30 07:39:14;;;;;;;18.10;8.10;;;;;;;0.58;89.40;97560.05;216099;1315;22794;-77
2021/11/30 07:44:16;;;;;;;19.50;7.70;;;;;;;0.61;89.12;97552.23;216264;1313;22575;-76
2021/11/30 07:49:29;;;;;;;17.50;8.00;;;;;;;0.65;88.80;97555.98;215939;1313;22618;-76
2021/11/30 07:54:35;;;;;;;18.10;8.00;;;;;;;0.67;88.42;97547.47;215502;1313;23497;-77
2021/11/30 07:59:38;;;;;;;15.30;7.70;;;;;;;0.70;88.21;97546.80;215424;1317;22720;-78
2021/11/30 08:04:40;;;;;;;23.30;9.90;;;;;;;0.75;88.67;97553.05;214923;1318;24387;-76
2021/11/30 08:09:43;;;;;;;16.40;8.30;;;;;;;0.80;88.43;97561.20;215446;1315;22516;-77
2021/11/30 08:14:45;;;;;;;14.50;7.00;;;;;;;0.81;87.36;97553.61;215606;1315;22524;-77
2021/11/30 08:19:47;;;;;;;16.70;7.30;;;;;;;0.83;87.61;97546.56;215822;1316;25418;-77
2021/11/30 08:24:49;;;;;;;13.10;7.10;;;;;;;0.90;87.98;97542.74;215441;1315;22617;-77
2021/11/30 08:29:52;;;;;;;9.50;4.80;;;;;;;0.95;87.35;97533.86;215502;1315;23226;-77
2021/11/30 08:34:56;;;;;;;15.60;7.00;;;;;;;1.02;86.89;97523.72;215259;1313;22660;-77
2021/11/30 08:39:58;;;;;;;13.80;6.70;;;;;;;1.13;86.71;97515.85;215778;1313;22600;-76
2021/11/30 08:45:04;;;;;;;13.40;6.40;;;;;;;1.29;86.47;97519.92;216041;1313;24152;-77
2021/11/30 08:50:27;;;;;;;16.00;7.40;;;;;;;1.41;85.85;97502.23;215792;1313;22605;-74
2021/11/30 08:55:29;;;;;;;12.20;6.20;;;;;;;1.48;85.57;97488.74;215519;1313;22614;-75
2021/11/30 09:00:36;;;;;;;12.50;6.50;;;;;;;1.54;85.09;97472.70;215424;1315;24340;-75
2021/11/30 09:05:39;;;;;;;9.30;5.20;;;;;;;1.56;84.38;97470.23;215742;1313;23368;-75
2021/11/30 09:10:42;;;;;;;11.00;5.40;;;;;;;1.47;82.92;97458.39;215617;1313;22605;-75
2021/11/30 09:15:45;;;;;;;7.50;4.50;;;;;;;1.47;83.14;97452.48;215494;1316;25375;-76
2021/11/30 09:20:47;;;;;;;8.00;4.50;;;;;;;1.61;82.67;97448.31;215507;1317;25365;-75
2021/11/30 09:25:53;;;;;;;9.40;5.00;;;;;;;1.84;82.63;97441.02;215389;1316;22606;-75
2021/11/30 09:31:00;;;;;;;9.00;4.70;;;;;;;2.08;81.99;97417.86;215696;1315;23184;-75
2021/11/30 09:36:15;;;;;;;6.40;4.10;;;;;;;2.20;81.68;97412.30;215504;1315;23016;-75
2021/11/30 09:41:18;;;;;;;7.30;4.40;;;;;;;2.19;80.38;97396.86;215177;1316;22662;-75
2021/11/30 09:46:24;;;;;;;8.70;4.30;;;;;;;2.10;79.61;97377.07;215402;1316;22505;-75
2021/11/30 09:51:27;;;;;;;12.10;5.00;;;;;;;2.09;80.34;97370.63;215372;1314;25975;-75
2021/11/30 09:56:29;;;;;;;5.90;3.90;;;;;;;2.12;79.69;97355.98;215429;1316;22724;-75
2021/11/30 10:01:45;;;;;;;8.30;4.30;;;;;;;2.11;79.21;97337.06;215258;1316;23948;-76
2021/11/30 10:07:04;;;;;;;7.00;4.10;;;;;;;2.01;78.93;97342.48;215433;1313;22787;-76
2021/11/30 10:12:20;;;;;;;8.20;3.80;;;;;;;1.92;78.71;97336.69;215591;1315;22523;-78
2021/11/30 10:17:30;;;;;;;7.50;4.20;;;;;;;1.85;78.88;97321.22;215862;1317;22741;-77
2021/11/30 10:22:52;;;;;;;12.00;5.70;;;;;;;1.80;79.49;97306.17;215803;1316;24200;-77
2021/11/30 10:28:02;;;;;;;10.40;4.30;;;;;;;1.74;79.14;97285.70;215853;1313;22630;-77
2021/11/30 10:33:33;;;;;;;7.10;4.40;;;;;;;1.69;78.82;97276.21;215667;1313;22638;-76
2021/11/30 10:38:38;;;;;;;9.50;4.50;;;;;;;1.66;78.00;97262.23;215938;1313;23135;-78
2021/11/30 10:43:54;;;;;;;8.80;4.80;;;;;;;1.62;78.91;97255.89;216909;1315;22510;-78
2021/11/30 10:48:57;;;;;;;8.30;4.30;;;;;;;1.62;78.64;97245.34;215895;1316;22741;-78
2021/11/30 10:54:02;;;;;;;9.60;4.60;;;;;;;1.59;79.17;97228.70;216023;1313;24095;-77
2021/11/30 10:59:04;;;;;;;10.10;4.20;;;;;;;1.50;80.16;97218.27;215753;1315;22737;-78
2021/11/30 11:04:12;;;;;;;11.00;5.30;;;;;;;1.43;81.28;97202.30;215519;1316;22680;-78
2021/11/30 11:09:15;;;;;;;8.00;4.60;;;;;;;1.37;81.04;97189.59;215376;1316;22817;-77
2021/11/30 11:14:20;;;;;;;10.30;5.40;;;;;;;1.33;80.83;97169.64;216034;1316;25397;-77
2021/11/30 11:19:43;;;;;;;8.20;4.00;;;;;;;1.30;79.93;97150.83;215943;1316;24246;-79
2021/11/30 11:24:50;;;;;;;7.90;3.40;;;;;;;1.29;80.28;97135.20;216248;1317;24331;-78
2021/11/30 11:29:53;;;;;;;10.10;4.60;;;;;;;1.39;79.93;97117.66;216457;1315;23695;-78
2021/11/30 11:34:59;;;;;;;8.60;4.60;;;;;;;1.45;79.59;97103.96;216321;1313;22687;-78
2021/11/30 11:40:16;;;;;;;8.20;4.00;;;;;;;1.48;79.06;97075.04;216407;1319;23711;-78
2021/11/30 11:45:47;;;;;;;7.70;3.60;;;;;;;1.51;79.25;97057.17;216309;1313;22932;-77
2021/11/30 11:51:05;;;;;;;8.30;4.20;;;;;;;1.52;79.13;97033.11;216235;1315;22829;-79
2021/11/30 11:56:24;;;;;;;8.70;4.10;;;;;;;1.50;79.05;97007.98;216620;1316;22634;-79
2021/11/30 12:01:26;;;;;;;7.60;4.00;;;;;;;1.52;78.83;96993.09;216743;1313;22986;-79
2021/11/30 12:06:32;;;;;;;8.20;4.50;;;;;;;1.50;78.72;96977.64;216562;1315;22640;-78
2021/11/30 12:11:36;;;;;;;8.30;4.30;;;;;;;1.44;79.35;96971.56;215486;1315;24308;-77
2021/11/30 12:16:58;;;;;;;5.30;3.20;;;;;;;1.25;80.52;96962.63;215850;1316;22663;-78
2021/11/30 12:22:05;;;;;;;6.90;4.20;;;;;;;1.07;82.07;96951.27;216034;1313;22780;-77
2021/11/30 12:27:13;;;;;;;8.70;4.20;;;;;;;0.92;83.10;96936.80;215881;1319;25433;-78
2021/11/30 12:32:20;;;;;;;7.50;3.60;;;;;;;0.82;83.44;96922.65;215930;1313;22613;-78
2021/11/30 12:37:25;;;;;;;10.10;4.00;;;;;;;0.82;83.70;96916.85;215552;1318;23325;-77
2021/11/30 12:42:28;;;;;;;7.60;3.70;;;;;;;0.85;83.69;96909.77;215808;1313;22567;-78
2021/11/30 12:47:30;;;;;;;8.80;3.90;;;;;;;0.88;83.42;96894.15;215831;1315;22646;-77
2021/11/30 12:52:38;;;;;;;7.20;3.90;;;;;;;0.90;82.59;96876.80;215729;1320;22772;-77
2021/11/30 12:57:43;;;;;;;8.60;3.70;;;;;;;0.93;82.13;96859.44;216052;1316;23250;-78
2021/11/30 13:02:47;;;;;;;5.60;3.30;;;;;;;0.97;81.75;96853.14;215616;1316;22621;-77
2021/11/30 13:07:53;;;;;;;7.30;3.60;;;;;;;1.00;82.41;96851.59;215675;1319;24375;-76
2021/11/30 13:12:59;;;;;;;4.90;2.40;;;;;;;0.92;83.43;96840.98;215405;1320;172041;-76
2021/11/30 13:18:05;;;;;;;6.20;2.80;;;;;;;0.81;84.40;96829.34;215320;1315;22551;-76
2021/11/30 13:23:07;;;;;;;5.20;2.60;;;;;;;0.63;86.42;96816.67;215590;1315;25898;-75
2021/11/30 13:28:20;;;;;;;6.20;3.30;;;;;;;0.42;88.02;96813.98;215495;1319;22512;-74
2021/11/30 13:33:32;;;;;;;8.00;3.30;;;;;;;0.29;88.91;96806.13;215784;1316;24225;-75
2021/11/30 13:38:52;;;;;;;5.80;2.80;;;;;;;0.19;90.09;96793.85;215644;1316;22612;-75
2021/11/30 13:43:55;;;;;;;8.50;3.00;;;;;;;0.07;91.22;96788.14;215644;1320;22643;-75
2021/11/30 13:49:02;;;;;;;6.10;3.00;;;;;;;-0.02;95.30;96771.91;215839;1316;22623;-75
2021/11/30 13:54:23;;;;;;;6.60;3.00;;;;;;;0.02;95.62;96753.63;215606;1316;25599;-75
2021/11/30 13:59:55;;;;;;;6.60;3.50;;;;;;;0.08;94.75;96743.28;215902;1316;24193;-76
2021/11/30 14:05:17;;;;;;;4.10;2.90;;;;;;;0.17;93.95;96733.71;215612;1321;22638;-76
2021/11/30 14:10:28;;;;;;;4.60;2.10;;;;;;;0.24;93.32;96725.26;215540;1321;25460;-75
2021/11/30 14:15:31;;;;;;;4.00;2.20;;;;;;;0.29;93.01;96717.43;215612;1322;22867;-75
2021/11/30 14:20:34;;;;;;;7.30;2.70;;;;;;;0.33;92.53;96712.73;215612;1322;23113;-76
2021/11/30 14:25:44;;;;;;;4.40;2.10;;;;;;;0.31;92.27;96702.35;216283;1316;24267;-77
2021/11/30 14:30:47;;;;;;;5.60;2.00;;;;;;;0.30;92.70;96691.52;215895;1316;22724;-77
2021/11/30 14:35:55;;;;;;;3.10;1.80;;;;;;;0.31;92.96;96689.19;215498;1317;22663;-78
2021/11/30 14:41:10;;;;;;;3.70;2.10;;;;;;;0.31;93.11;96687.34;215796;1318;22640;-77
2021/11/30 14:46:16;;;;;;;4.60;2.20;;;;;;;0.28;93.48;96683.35;217620;1322;23108;-77
2021/11/30 14:51:19;;;;;;;3.40;2.00;;;;;;;0.24;93.37;96690.34;216842;1316;22742;-77
2021/11/30 14:56:43;;;;;;;3.50;2.30;;;;;;;0.19;93.86;96683.10;216528;1316;24865;-76
2021/11/30 15:02:04;;;;;;;1.60;1.20;;;;;;;0.09;94.19;96685.98;216719;1316;24241;-77
2021/11/30 15:07:13;;;;;;;2.90;2.50;;;;;;;0.02;94.85;96687.66;215993;1315;22763;-77
2021/11/30 15:12:25;;;;;;;4.80;2.00;;;;;;;-0.06;96.16;96689.96;215675;1315;22826;-76
2021/11/30 15:17:28;;;;;;;1.80;1.30;;;;;;;-0.15;96.48;96683.89;215687;1316;22575;-76
2021/11/30 15:22:30;;;;;;;3.10;1.70;;;;;;;-0.20;97.37;96681.60;215535;1316;23114;-76
2021/11/30 15:27:40;;;;;;;4.20;2.10;;;;;;;-0.21;98.22;96680.50;215614;1316;22735;-76
2021/11/30 15:32:42;;;;;;;2.60;1.70;;;;;;;-0.15;98.93;96671.95;215750;1315;22574;-76
2021/11/30 15:37:44;;;;;;;2.40;1.50;;;;;;;-0.10;99.25;96662.39;216440;1316;22641;-76
2021/11/30 15:42:47;;;;;;;5.00;1.90;;;;;;;-0.03;99.36;96660.89;216387;1315;24397;-76
2021/11/30 15:48:07;;;;;;;3.60;2.10;;;;;;;0.00;99.43;96653.13;216179;1315;23236;-76
2021/11/30 15:53:12;;;;;;;4.10;2.40;;;;;;;0.03;99.45;96646.38;216352;1316;22882;-76
2021/11/30 15:58:14;;;;;;;5.10;2.70;;;;;;;0.05;99.18;96644.27;215874;1316;22526;-76
2021/11/30 16:03:17;;;;;;;5.00;2.60;;;;;;;0.09;99.32;96647.55;215654;1315;22745;-77
2021/11/30 16:08:19;;;;;;;5.20;2.60;;;;;;;0.13;98.83;96644.63;215839;1316;22671;-77
2021/11/30 16:13:21;;;;;;;5.70;2.70;;;;;;;0.15;98.58;96639.41;215334;1321;22611;-75
2021/11/30 16:18:23;;;;;;;5.30;2.80;;;;;;;0.18;98.28;96630.64;215432;1316;22725;-76
2021/11/30 16:23:25;;;;;;;5.00;2.70;;;;;;;0.22;98.01;96632.36;215369;1321;22909;-75
2021/11/30 16:28:37;;;;;;;3.60;2.20;;;;;;;0.24;97.61;96631.02;215418;1322;22686;-75
2021/11/30 16:33:52;;;;;;;7.80;3.20;;;;;;;0.25;97.81;96627.65;215179;1320;22803;-75
2021/11/30 16:38:54;;;;;;;4.40;3.00;;;;;;;0.29;97.27;96629.31;214827;1322;22615;-76
2021/11/30 16:43:56;;;;;;;9.30;3.70;;;;;;;0.31;97.15;96628.93;215226;1322;22670;-76
2021/11/30 16:48:58;;;;;;;4.60;2.50;;;;;;;0.32;97.03;96623.19;214893;1322;25356;-76
2021/11/30 16:54:01;;;;;;;5.80;2.50;;;;;;;0.34;96.83;96624.91;215108;1321;22500;-76
2021/11/30 16:59:13;;;;;;;5.90;2.40;;;;;;;0.37;96.88;96630.90;215123;1322;22666;-77
2021/11/30 17:04:15;;;;;;;6.70;2.90;;;;;;;0.40;96.75;96623.33;215473;1321;24288;-76
2021/11/30 17:09:25;;;;;;;5.30;2.10;;;;;;;0.44;96.45;96623.35;215370;1320;23116;-76
2021/11/30 17:14:28;;;;;;;2.70;1.80;;;;;;;0.50;95.83;96629.84;215271;1320;23883;-76
2021/11/30 17:19:30;;;;;;;4.40;1.30;;;;;;;0.57;95.25;96642.48;215312;1321;24269;-76
2021/11/30 17:24:36;;;;;;;2.20;1.10;;;;;;;0.59;95.00;96628.20;215139;1323;22570;-76
2021/11/30 17:29:42;;;;;;;3.20;0.90;;;;;;;0.60;94.75;96622.64;215302;1322;22643;-76
2021/11/30 17:34:45;;;;;;;1.30;1.10;;;;;;;0.60;94.53;96618.48;214962;1322;22720;-76
2021/11/30 17:39:47;;;;;;;2.90;0.80;;;;;;;0.68;94.43;96620.43;215163;1323;25452;-76
2021/11/30 17:44:49;;;;;;;2.30;1.20;;;;;;;0.74;94.32;96628.23;215254;1321;22918;-75
2021/11/30 17:49:52;;;;;;;1.00;0.60;;;;;;;0.78;94.23;96633.05;215212;1320;22654;-75
2021/11/30 17:55:08;;;;;;;0.80;0.60;;;;;;;0.81;94.26;96648.88;215037;1322;24235;-76
2021/11/30 18:00:13;;;;;;;1.00;0.80;;;;;;;0.79;93.83;96643.05;214591;1324;22565;-76
2021/11/30 18:05:17;;;;;;;3.20;1.80;;;;;;;0.74;94.13;96659.55;215166;1321;25345;-75
2021/11/30 18:10:37;;;;;;;1.90;1.20;;;;;;;0.74;94.45;96670.77;215212;1322;22667;-75
2021/11/30 18:15:59;;;;;;;2.60;1.20;;;;;;;0.77;94.38;96688.98;215638;1323;25545;-76
2021/11/30 18:21:01;;;;;;;3.10;1.50;;;;;;;0.78;94.25;96701.95;215386;1322;22548;-76
2021/11/30 18:26:07;;;;;;;4.00;2.00;;;;;;;0.77;94.18;96704.02;215103;1322;23140;-76
2021/11/30 18:31:09;;;;;;;3.00;1.70;;;;;;;0.77;94.39;96708.80;215227;1322;22560;-75
2021/11/30 18:36:13;;;;;;;2.20;1.20;;;;;;;0.74;94.57;96716.89;215232;1322;23866;-76
2021/11/30 18:41:15;;;;;;;2.70;1.50;;;;;;;0.74;94.70;96724.00;215024;1323;22661;-75
2021/11/30 18:46:17;;;;;;;1.60;1.50;;;;;;;0.75;94.79;96734.13;215592;1322;22981;-75
2021/11/30 18:51:22;;;;;;;2.70;1.80;;;;;;;0.77;95.08;96735.00;215263;1322;22774;-75
2021/11/30 18:56:25;;;;;;;2.30;1.60;;;;;;;0.81;94.90;96739.30;215761;1322;25427;-76
2021/11/30 19:01:27;;;;;;;4.60;1.90;;;;;;;0.89;95.22;96749.46;215329;1322;22736;-75
2021/11/30 19:06:30;;;;;;;2.60;2.00;;;;;;;0.97;95.13;96747.35;215277;1322;22513;-76
2021/11/30 19:11:32;;;;;;;2.60;2.00;;;;;;;1.02;94.98;96753.42;215585;1322;22641;-77
2021/11/30 19:16:41;;;;;;;2.10;1.60;;;;;;;1.04;94.80;96761.77;215368;1321;22594;-76
2021/11/30 19:21:44;;;;;;;1.70;1.40;;;;;;;1.03;94.34;96755.85;215698;1317;25382;-76
2021/11/30 19:26:47;;;;;;;3.20;1.20;;;;;;;0.99;94.30;96758.58;216223;1322;24250;-76
2021/11/30 19:31:58;;;;;;;1.90;1.10;;;;;;;0.97;94.48;96755.85;216031;1320;22635;-76
2021/11/30 19:37:00;;;;;;;3.50;1.20;;;;;;;0.94;94.76;96745.42;216502;1321;23397;-76
2021/11/30 19:42:03;;;;;;;3.30;1.30;;;;;;;0.92;94.84;96753.24;216415;1321;22632;-77
2021/11/30 19:47:09;;;;;;;3.90;1.80;;;;;;;0.90;94.78;96753.99;216573;1319;22634;-78
2021/11/30 19:52:11;;;;;;;3.10;2.50;;;;;;;0.90;94.98;96766.30;216276;1323;23290;-76
2021/11/30 19:57:16;;;;;;;3.70;2.00;;;;;;;0.91;95.10;96773.30;216235;1321;22722;-76
2021/11/30 20:07:40;;;;;;;4.00;2.30;;;;;;;0.93;95.03;96770.47;216343;1321;22513;-77
2021/11/30 20:12:42;;;;;;;4.70;2.10;;;;;;;0.97;95.15;96777.83;216441;1323;22988;-76
2021/11/30 20:17:44;;;;;;;5.90;2.60;;;;;;;1.06;95.08;96790.32;216343;1322;22508;-78
2021/11/30 20:22:47;;;;;;;5.50;2.80;;;;;;;1.14;94.71;96785.67;216247;1320;22719;-76
2021/11/30 20:27:51;;;;;;;5.70;1.80;;;;;;;1.26;94.32;96794.39;216225;1323;22601;-76
2021/11/30 20:32:54;;;;;;;2.80;1.30;;;;;;;1.42;93.75;96803.92;216176;1318;22573;-77
2021/11/30 20:43:23;;;;;;;2.20;1.20;;;;;;;1.66;92.60;96818.85;216432;1317;22634;-76
2021/11/30 20:48:26;;;;;;;3.10;1.20;;;;;;;1.66;91.70;96832.63;216243;1322;22563;-76
2021/11/30 20:53:28;;;;;;;3.40;1.60;;;;;;;1.69;91.33;96842.02;216222;1323;24391;-76
2021/11/30 20:58:31;;;;;;;4.20;1.80;;;;;;;1.62;90.86;96850.52;216197;1317;22586;-76
2021/11/30 21:03:35;;;;;;;3.40;2.00;;;;;;;1.56;91.22;96849.77;216172;1322;22614;-77
2021/11/30 21:08:37;;;;;;;2.40;1.50;;;;;;;1.50;90.99;96849.22;216014;1321;120074;-76
2021/11/30 21:13:39;;;;;;;3.10;1.40;;;;;;;1.46;90.92;96860.36;216016;1317;22611;-77
2021/11/30 21:18:44;;;;;;;3.70;1.40;;;;;;;1.43;91.30;96862.11;216240;1322;22633;-76
2021/11/30 21:23:46;;;;;;;3.70;1.40;;;;;;;1.42;91.17;96878.90;216125;1322;24253;-77
2021/11/30 21:28:47;;;;;;;5.00;1.90;;;;;;;1.49;91.42;96876.94;215999;1320;22665;-77
2021/11/30 21:33:49;;;;;;;3.50;2.20;;;;;;;1.63;91.01;96890.41;215646;1320;24170;-77
2021/11/30 21:38:52;;;;;;;3.00;1.60;;;;;;;1.70;90.71;96897.59;215938;1320;22588;-76
2021/11/30 21:43:54;;;;;;;5.90;2.10;;;;;;;1.77;90.32;96904.45;215979;1322;22709;-76
2021/11/30 21:48:57;;;;;;;5.80;2.00;;;;;;;1.82;90.00;96907.30;216040;1321;22608;-77
2021/11/30 21:54:01;;;;;;;2.90;1.70;;;;;;;1.91;90.27;96912.09;216121;1321;24260;-76
2021/11/30 21:59:03;;;;;;;5.40;1.40;;;;;;;2.00;88.92;96916.92;216032;1322;22509;-76
2021/11/30 22:04:05;;;;;;;2.90;1.20;;;;;;;2.08;89.16;96918.55;215723;1322;22752;-76
2021/11/30 22:09:07;;;;;;;3.10;1.90;;;;;;;2.16;89.27;96920.54;215718;1320;24331;-77
2021/11/30 22:14:09;;;;;;;1.90;1.20;;;;;;;2.21;88.47;96942.36;215745;1322;25341;-77
2021/11/30 22:19:11;;;;;;;2.70;0.90;;;;;;;2.26;88.31;96953.42;215802;1322;22731;-76
2021/11/30 22:24:13;;;;;;;2.80;0.90;;;;;;;2.30;87.64;96970.96;215930;1322;23068;-76
2021/11/30 22:29:15;;;;;;;3.40;1.20;;;;;;;2.23;87.60;96977.85;215875;1322;22601;-76
2021/11/30 22:34:17;;;;;;;7.40;1.40;;;;;;;2.07;87.57;97005.51;216105;1321;22762;-76
2021/11/30 22:39:19;;;;;;;3.50;1.10;;;;;;;1.94;87.81;97007.30;216034;1322;22538;-76
2021/11/30 22:44:22;;;;;;;4.50;1.50;;;;;;;1.84;88.24;97014.71;215702;1320;22610;-76
2021/11/30 22:49:26;;;;;;;3.30;1.40;;;;;;;1.75;88.50;97015.08;215887;1320;23917;-76
2021/11/30 22:54:28;;;;;;;3.10;0.90;;;;;;;1.69;88.18;97020.98;215410;1322;22539;-76
2021/11/30 22:59:30;;;;;;;2.50;1.10;;;;;;;1.75;88.36;97038.58;215574;1317;22724;-76
2021/11/30 23:04:32;;;;;;;2.50;1.00;;;;;;;1.77;87.84;97045.43;215429;1321;22598;-76
2021/11/30 23:09:34;;;;;;;4.00;1.20;;;;;;;1.64;88.21;97049.98;215247;1321;25972;-76
2021/11/30 23:14:38;;;;;;;4.10;1.20;;;;;;;1.50;88.55;97075.66;215190;1321;22625;-76
2021/11/30 23:19:41;;;;;;;3.80;1.50;;;;;;;1.38;88.92;97072.85;215116;1322;22724;-76
2021/11/30 23:29:52;;;;;;;2.10;1.30;;;;;;;1.28;89.58;97071.26;214877;1316;23782;-76
2021/11/30 23:35:10;;;;;;;3.20;1.60;;;;;;;1.32;90.12;97076.95;214794;1322;24218;-76
2021/11/30 23:40:22;;;;;;;3.30;1.30;;;;;;;1.41;90.31;97086.05;214856;1322;22616;-76
2021/11/30 23:45:24;;;;;;;2.00;1.10;;;;;;;1.47;90.28;97083.84;215111;1322;23127;-76
2021/11/30 23:50:46;;;;;;;3.80;1.60;;;;;;;1.50;90.05;97092.45;215076;1322;25495;-75
2021/11/30 23:55:49;;;;;;;3.20;1.40;;;;;;;1.51;89.68;97094.38;215278;1321;22515;-76
